Kemerovo Airport
UNEE : now visible

Airfield :











YOU CAN JOIN US ON...

 
LOGIN :

Register | Disclaimer

   EN    FR    IT 

 









Legend :    VFR   Marginal VFR   IFR   Intensive IFR   Very Intensive IFR
Visi :
Ceiling :
>= 8 km
>= 3000ft
5 to 8 km
1000 to 3000 ft
1500m to 5 km
500 to 1000 ft
800 to 1500m
200 to 500 ft
< 800m
< 200 ft
Symbols :   Thunderstorms  Fog  Heavy snow  Heavy precipitations  Wind > 20 kt






- Airport Elevation : 863 ft
- IATA code : KEJ


UNEE - Kemerovo

CURRENT METAR :
  • 021530Z 00000MPS 9999 NSC M16/M18 Q1042 R23/491045 NOSIG RMK QFE758

EXPIRED METARs :
  • 021500Z 00000MPS 9999 SCT025 M17/M19 Q1042 R23/491045 NOSIG RMK QFE758
  • 021430Z 00000MPS 9999 SCT025 M16/M18 Q1042 R23/491045 NOSIG RMK QFE758
  • 021400Z 00000MPS 8000 SCT025 M16/M18 Q1043 R23/491045 NOSIG RMK QFE758
  • 021330Z 00000MPS 9000 SCT025 M16/M18 Q1043 R23/491045 NOSIG RMK QFE759
  • 021300Z 00000MPS 8000 BKN029 M16/M18 Q1043 R23/491045 NOSIG RMK QFE759

TAF TAF UNEE
Valid from the 02 at 15:00 until the 03 at 15:00 UTC


021400Z 0215/0315 16003MPS 6000 -SN BKN020
TEMPO 0215/0218 1000 BR BKN005
FM021800 32003MPS 0800 SN FU BKN003
TEMPO 0218/0306 0150 FZFG VV001
BECMG 0306/0308 6000 -SN BKN016
UNNT FIR / Asia



MET'MAP, your aeronautical weather chart ! - Copyright ORBIFLY December 2007 - Disclaimer

ORBIFLY MET'MAP TEAM :

Programming & Development : Alexandra Zaïnal
Concept & original design : Baudouin d'Aumeries
Assistance for programming : Marc-Olivier Méhu
Technical & hardware support : Manuel Goepfert

Contact : metmap@orbifly.com




SOURCES & CREDITS :

   NOAA       Earth
Advisory